Time;durP1;ratioP1;P1;durP2;ratioP2;P2;SDS_P1;SDS_P2;PMS_P1;PMS_P2;Temp;Humidity;BMP_temperature;BMP_pressure;BME280_temperature;BME280_humidity;BME280_pressure;Samples;Min_cycle;Max_cycle;Signal;HPM_P1;HPM_P2
2022/05/31 07:24:56;;;;;;;1.77;1.23;;;;;;;17.45;55.89;98512.00;5107525;27;20286;-85
2022/05/31 07:27:25;;;;;;;2.30;1.30;;;;;;;17.93;56.21;98529.09;5020184;28;1989392;-85
2022/05/31 07:29:52;;;;;;;4.20;1.20;;;;;;;17.71;56.16;98516.03;5110084;28;20406;-85
2022/05/31 07:32:18;;;;;;;9.38;1.50;;;;;;;18.36;54.09;98502.84;5091410;28;20076;-85
2022/05/31 07:34:45;;;;;;;7.30;1.48;;;;;;;18.93;53.86;98512.75;5094127;28;20503;-86
2022/05/31 07:37:12;;;;;;;2.25;1.23;;;;;;;19.30;50.82;98525.03;5076634;28;20055;-85
2022/05/31 07:39:39;;;;;;;9.40;1.83;;;;;;;19.37;50.68;98531.19;5071445;28;20065;-85
2022/05/31 07:42:11;;;;;;;10.80;1.67;;;;;;;19.40;52.80;98527.91;5071022;28;20132;-85
2022/05/31 07:44:38;;;;;;;4.05;1.20;;;;;;;19.43;50.22;98510.88;5070340;28;20053;-85
2022/05/31 07:47:05;;;;;;;3.35;1.23;;;;;;;19.43;52.37;98521.88;5073291;28;20045;-85
2022/05/31 07:49:32;;;;;;;2.72;1.15;;;;;;;19.59;50.76;98520.97;5105449;28;20044;-86
2022/05/31 07:51:58;;;;;;;2.78;0.93;;;;;;;19.44;50.63;98502.34;5085077;28;20104;-86
2022/05/31 07:54:25;;;;;;;2.85;1.48;;;;;;;19.47;50.54;98502.94;5101305;28;20109;-85
2022/05/31 07:56:52;;;;;;;3.33;1.48;;;;;;;19.53;50.60;98521.19;5109277;28;20047;-86
2022/05/31 07:59:20;;;;;;;12.32;1.60;;;;;;;19.32;51.55;98515.44;5109266;28;20062;-85
2022/05/31 08:01:47;;;;;;;4.20;1.50;;;;;;;19.00;51.30;98524.41;5106144;28;20055;-84
2022/05/31 08:04:14;;;;;;;4.20;1.30;;;;;;;19.37;54.37;98521.00;5101712;28;20400;-85
2022/05/31 08:06:41;;;;;;;2.67;1.20;;;;;;;19.61;51.02;98502.22;5098720;28;20064;-86
2022/05/31 08:09:08;;;;;;;6.60;1.38;;;;;;;20.16;51.68;98516.00;5084006;28;20054;-86
2022/05/31 08:11:37;;;;;;;4.07;1.10;;;;;;;20.08;48.37;98486.13;5082148;28;20135;-87
2022/05/31 08:56:57;;;;;;;2.05;1.10;;;;;;;20.44;45.34;98473.41;5064799;28;20045;-85
2022/05/31 08:59:32;;;;;;;1.95;1.20;;;;;;;20.43;46.21;98463.50;5085175;28;20063;-86
2022/05/31 09:02:01;;;;;;;2.40;1.30;;;;;;;20.38;46.28;98474.47;5094358;28;20050;-86
2022/05/31 09:04:39;;;;;;;2.03;1.25;;;;;;;20.19;45.58;98481.53;5095369;28;20113;-86
2022/05/31 09:07:12;;;;;;;2.45;1.20;;;;;;;20.54;45.06;98478.19;5095332;28;20048;-86
2022/05/31 09:09:46;;;;;;;1.45;0.80;;;;;;;20.56;47.45;98469.63;5096370;28;20466;-87
2022/05/31 09:12:23;;;;;;;1.20;1.10;;;;;;;20.88;43.60;98505.47;5089487;28;20059;-86
2022/05/31 09:14:58;;;;;;;2.60;1.38;;;;;;;20.68;43.52;98495.13;5074995;28;20056;-87
2022/05/31 09:17:32;;;;;;;2.22;1.10;;;;;;;20.62;45.10;98485.13;5067109;28;20132;-86
2022/05/31 09:20:03;;;;;;;3.30;1.00;;;;;;;20.43;45.25;98488.34;5074453;28;20207;-85
2022/05/31 09:22:32;;;;;;;3.58;1.10;;;;;;;20.15;45.07;98517.09;5094883;28;20115;-87
2022/05/31 09:25:00;;;;;;;4.53;1.00;;;;;;;20.30;46.29;98510.88;5114920;28;20060;-87
2022/05/31 09:27:38;;;;;;;2.08;0.90;;;;;;;20.32;47.12;98504.00;5113517;28;20396;-86
2022/05/31 09:30:10;;;;;;;2.78;1.00;;;;;;;20.74;46.03;98498.75;5094089;28;20496;-86
2022/05/31 09:32:51;;;;;;;1.92;1.20;;;;;;;21.11;42.93;98493.13;5084910;28;20459;-86
2022/05/31 09:35:32;;;;;;;4.75;1.02;;;;;;;21.32;43.36;98502.31;5075176;28;20072;-86
2022/05/31 09:38:19;;;;;;;3.13;1.10;;;;;;;21.89;42.56;98499.72;5075148;28;20564;-86
2022/05/31 09:40:48;;;;;;;2.72;1.10;;;;;;;21.79;40.69;98508.81;5094537;28;20058;-85
2022/05/31 09:43:25;;;;;;;1.40;1.20;;;;;;;21.89;40.65;98502.50;5093871;28;20048;-86
2022/05/31 09:46:01;;;;;;;1.50;1.20;;;;;;;22.39;40.06;98502.78;5086122;28;20052;-86
2022/05/31 09:48:28;;;;;;;1.95;1.00;;;;;;;22.50;39.18;98503.59;5067365;28;20545;-85
2022/05/31 09:51:00;;;;;;;3.00;1.52;;;;;;;22.44;38.50;98475.88;5073205;28;20052;-86
2022/05/31 09:59:12;;;;;;;1.73;1.08;;;;;;;22.42;39.38;98485.59;5090443;28;20415;-85
2022/05/31 10:01:43;;;;;;;2.13;1.10;;;;;;;22.33;38.62;98481.75;5090954;28;20048;-86
2022/05/31 10:04:13;;;;;;;1.40;0.85;;;;;;;22.08;38.76;98491.69;5068926;28;20051;-87
2022/05/31 10:06:53;;;;;;;3.38;1.30;;;;;;;21.97;39.35;98474.25;5066786;28;20062;-86
2022/05/31 10:09:25;;;;;;;3.78;1.33;;;;;;;22.26;39.31;98484.75;5063607;28;20483;-83
2022/05/31 10:12:16;;;;;;;2.28;1.10;;;;;;;22.26;39.76;98495.81;5075168;28;20070;-84
2022/05/31 10:14:46;;;;;;;3.95;1.25;;;;;;;22.50;39.18;98490.56;5084039;28;20054;-85
2022/05/31 10:17:29;;;;;;;3.25;1.30;;;;;;;22.43;37.58;98476.16;5093014;28;20044;-86
2022/05/31 10:20:13;;;;;;;3.33;1.10;;;;;;;22.50;37.97;98476.72;5093817;28;20048;-86
2022/05/31 10:22:48;;;;;;;7.20;1.60;;;;;;;22.29;38.39;98481.44;5068124;28;20049;-85
2022/05/31 10:25:22;;;;;;;3.83;1.20;;;;;;;22.30;38.09;98485.88;5062260;28;20050;-84
2022/05/31 10:27:49;;;;;;;3.15;1.25;;;;;;;22.14;38.44;98464.84;5088631;28;20056;-86
2022/05/31 10:30:23;;;;;;;3.58;1.13;;;;;;;22.03;38.58;98481.44;5092871;28;20068;-87
2022/05/31 10:32:52;;;;;;;5.90;1.75;;;;;;;21.86;38.57;98470.66;5088348;28;20079;-86
2022/05/31 10:35:23;;;;;;;3.28;1.30;;;;;;;21.83;38.67;98473.97;5096869;28;20047;-84
2022/05/31 10:38:01;;;;;;;4.65;1.15;;;;;;;22.30;37.71;98473.97;5063461;28;20053;-85
2022/05/31 10:40:46;;;;;;;2.40;1.20;;;;;;;22.79;37.93;98465.00;5085202;28;20048;-85
2022/05/31 10:43:30;;;;;;;2.95;1.15;;;;;;;23.33;37.01;98471.72;5095328;28;20044;-88
2022/05/31 10:45:57;;;;;;;4.00;1.23;;;;;;;23.42;37.16;98477.50;5096212;28;20032;-87
2022/05/31 10:48:26;;;;;;;4.22;1.23;;;;;;;23.02;37.73;98457.16;5097397;28;20112;-83
2022/05/31 10:50:57;;;;;;;2.78;1.23;;;;;;;22.86;35.34;98451.69;5109866;28;20097;-85
2022/05/31 10:53:34;;;;;;;4.78;1.52;;;;;;;22.41;37.22;98446.00;5099942;28;20049;-85
2022/05/31 10:56:10;;;;;;;1.98;0.98;;;;;;;22.31;36.89;98456.22;5064626;28;20067;-86
2022/05/31 10:58:52;;;;;;;2.22;1.45;;;;;;;22.21;37.62;98463.44;5072244;28;20045;-85
2022/05/31 11:01:33;;;;;;;2.03;0.98;;;;;;;22.47;35.83;98470.91;5067838;28;20410;-85
2022/05/31 11:04:15;;;;;;;1.85;1.10;;;;;;;22.15;35.92;98447.13;5079061;28;20606;-84
2022/05/31 11:06:57;;;;;;;3.42;1.10;;;;;;;22.57;35.14;98473.69;5079599;28;20541;-84
2022/05/31 11:12:41;;;;;;;1.70;0.88;;;;;;;22.99;35.03;98475.19;5076552;28;20085;-85
2022/05/31 11:15:21;;;;;;;3.45;1.40;;;;;;;23.19;34.11;98443.00;5102982;28;20549;-83
2022/05/31 11:18:12;;;;;;;1.27;0.90;;;;;;;23.50;36.00;98443.59;5074335;28;20435;-85
2022/05/31 11:20:46;;;;;;;2.38;1.30;;;;;;;23.84;35.05;98476.13;5073201;28;20052;-84
2022/05/31 11:23:29;;;;;;;2.85;1.10;;;;;;;24.25;35.08;98475.81;5067874;28;20132;-86
2022/05/31 11:26:07;;;;;;;1.58;0.88;;;;;;;23.66;33.55;98486.78;5068993;28;20052;-85
2022/05/31 11:58:56;;;;;;;3.97;1.30;;;;;;;22.83;34.12;98484.69;5083750;28;20070;-82
2022/05/31 12:01:26;;;;;;;3.40;0.85;;;;;;;22.97;34.23;98475.50;5082206;28;20044;-85
2022/05/31 12:04:02;;;;;;;3.03;2.15;;;;;;;22.91;34.74;98471.09;5069428;28;20045;-85
2022/05/31 12:06:36;;;;;;;3.13;1.00;;;;;;;23.03;32.99;98490.13;5076727;28;20056;-84
2022/05/31 12:09:13;;;;;;;3.50;1.27;;;;;;;23.14;31.94;98475.16;5051120;28;20052;-86
2022/05/31 12:11:47;;;;;;;3.20;1.10;;;;;;;23.13;32.57;98470.72;5054611;28;20060;-85
2022/05/31 12:14:17;;;;;;;2.30;0.85;;;;;;;23.22;32.75;98482.06;5093283;28;20052;-86
2022/05/31 12:16:44;;;;;;;2.92;0.88;;;;;;;23.13;31.91;98458.81;5069393;28;20068;-85
2022/05/31 12:19:25;;;;;;;3.13;1.00;;;;;;;23.06;31.83;98480.44;5072987;28;20052;-85
2022/05/31 12:21:56;;;;;;;2.35;0.85;;;;;;;22.54;30.06;98463.97;5071148;28;20531;-85
2022/05/31 12:24:29;;;;;;;2.42;0.90;;;;;;;22.37;30.32;98464.31;5086159;28;20051;-85
2022/05/31 12:27:01;;;;;;;0.68;0.60;;;;;;;22.42;31.11;98477.31;5094775;28;20329;-84
2022/05/31 12:29:34;;;;;;;3.75;1.00;;;;;;;21.94;30.86;98472.03;5088348;28;20080;-87
2022/05/31 12:32:45;;;;;;;1.35;0.85;;;;;;;22.10;31.69;98478.41;5053965;28;20140;-85
2022/05/31 12:35:55;;;;;;;2.53;0.95;;;;;;;22.11;32.37;98449.59;4997524;28;20054;-86
2022/05/31 12:38:22;;;;;;;4.50;1.33;;;;;;;22.45;30.62;98458.19;5002170;28;20057;-84
2022/05/31 12:40:52;;;;;;;3.05;1.15;;;;;;;22.53;31.31;98462.31;5059567;28;20491;-85
2022/05/31 12:43:48;;;;;;;3.70;1.10;;;;;;;22.50;29.57;98479.50;5073493;28;20049;-85
2022/05/31 12:46:33;;;;;;;3.00;0.90;;;;;;;22.25;30.75;98488.63;5053120;28;20056;-82
2022/05/31 12:49:02;;;;;;;2.83;1.00;;;;;;;22.24;30.61;98473.97;5088253;28;20044;-84
2022/05/31 12:51:29;;;;;;;1.63;0.93;;;;;;;22.06;32.06;98469.81;5094018;28;20054;-85
2022/05/31 12:54:05;;;;;;;1.30;0.68;;;;;;;21.96;31.32;98474.53;5082580;28;20359;-83
2022/05/31 12:56:58;;;;;;;1.92;0.90;;;;;;;22.18;31.11;98454.88;5093728;28;20048;-83
2022/05/31 12:59:45;;;;;;;2.95;1.00;;;;;;;22.32;31.10;98475.38;5081005;28;20041;-85
2022/05/31 13:02:38;;;;;;;3.22;1.00;;;;;;;22.19;31.46;98446.28;5073655;28;20054;-84
2022/05/31 13:05:31;;;;;;;3.60;0.95;;;;;;;22.15;31.43;98447.94;5083369;28;20048;-83
2022/05/31 13:08:19;;;;;;;4.28;1.10;;;;;;;22.45;32.08;98476.75;5073156;28;20056;-84
2022/05/31 13:19:38;;;;;;;3.47;1.30;;;;;;;22.33;31.90;98459.59;5082922;28;20097;-83
2022/05/31 13:22:08;;;;;;;3.53;1.13;;;;;;;22.30;32.91;98433.25;5066348;28;20131;-83
2022/05/31 13:24:43;;;;;;;1.92;1.10;;;;;;;22.34;32.04;98464.84;5072863;28;20098;-82
2022/05/31 13:27:11;;;;;;;5.30;1.15;;;;;;;22.20;32.57;98467.31;5077695;28;20051;-83
2022/05/31 13:29:37;;;;;;;6.22;1.15;;;;;;;22.59;32.44;98460.38;5066655;28;20049;-83
2022/05/31 13:32:05;;;;;;;3.50;1.10;;;;;;;22.35;32.69;98444.34;5064058;28;20044;-84
2022/05/31 13:34:36;;;;;;;1.77;0.88;;;;;;;22.25;31.71;98434.09;5083932;28;20052;-83
2022/05/31 13:37:12;;;;;;;1.83;1.00;;;;;;;22.76;31.92;98462.81;5079967;28;20510;-83
2022/05/31 13:39:42;;;;;;;0.98;0.75;;;;;;;22.78;31.01;98455.06;5092658;28;20070;-84
2022/05/31 13:42:18;;;;;;;9.00;1.15;;;;;;;22.80;31.59;98442.56;5092436;28;20056;-84
2022/05/31 13:44:44;;;;;;;0.80;0.80;;;;;;;22.79;30.08;98446.47;5081573;28;20040;-82
2022/05/31 13:47:17;;;;;;;1.58;0.90;;;;;;;22.94;30.50;98456.66;5073985;28;20543;-84
2022/05/31 13:49:48;;;;;;;2.17;1.58;;;;;;;22.88;30.46;98456.94;5076605;28;20445;-84
2022/05/31 13:52:28;;;;;;;1.90;1.30;;;;;;;22.83;32.11;98463.34;5064182;28;20048;-84
2022/05/31 13:55:06;;;;;;;1.60;0.93;;;;;;;22.78;30.79;98436.47;5092908;28;20052;-84
2022/05/31 13:57:33;;;;;;;2.13;0.85;;;;;;;22.69;31.11;98448.41;5092815;28;20044;-83
2022/05/31 13:59:59;;;;;;;7.75;1.30;;;;;;;22.66;31.24;98435.97;5062534;28;20127;-84
2022/05/31 14:02:48;;;;;;;1.88;0.88;;;;;;;22.86;30.50;98448.91;5083697;28;20058;-84
2022/05/31 14:05:20;;;;;;;3.03;0.80;;;;;;;22.61;30.94;98444.28;5080431;28;20051;-84
2022/05/31 14:07:48;;;;;;;2.17;1.05;;;;;;;22.87;30.15;98450.56;5078092;28;20376;-83
2022/05/31 14:10:17;;;;;;;1.38;0.65;;;;;;;23.62;29.44;98438.56;5091822;28;20055;-84
2022/05/31 14:12:45;;;;;;;2.03;0.95;;;;;;;23.77;29.41;98434.00;5082540;28;20140;-84
2022/05/31 14:15:21;;;;;;;2.22;0.88;;;;;;;23.64;28.95;98444.63;5072118;28;20101;-84
2022/05/31 14:17:48;;;;;;;2.63;1.13;;;;;;;23.42;28.37;98452.56;5072385;28;20053;-83
2022/05/31 14:20:21;;;;;;;4.32;1.60;;;;;;;23.01;28.61;98447.19;5071897;28;20058;-84
2022/05/31 14:22:50;;;;;;;2.05;1.33;;;;;;;23.17;29.00;98434.09;5089292;28;20489;-85
2022/05/31 14:25:22;;;;;;;4.78;1.27;;;;;;;23.77;29.35;98434.84;5067759;28;20476;-85
2022/05/31 14:27:49;;;;;;;2.97;1.33;;;;;;;23.96;28.69;98436.94;5072068;28;20056;-85
2022/05/31 14:30:30;;;;;;;0.80;0.70;;;;;;;23.95;29.43;98430.56;5060279;28;20145;-85
2022/05/31 14:33:01;;;;;;;4.57;0.90;;;;;;;23.57;29.45;98404.47;5085637;28;20495;-85
2022/05/31 14:35:31;;;;;;;3.03;0.93;;;;;;;23.33;29.55;98419.03;5092525;28;20396;-85
2022/05/31 14:37:59;;;;;;;1.35;0.85;;;;;;;23.32;32.07;98423.78;5087140;28;20134;-85
2022/05/31 14:40:30;;;;;;;3.83;1.33;;;;;;;23.42;30.76;98422.03;5086139;28;20048;-85
2022/05/31 14:43:15;;;;;;;2.33;1.10;;;;;;;23.53;31.99;98418.09;5060514;28;20076;-85
2022/05/31 14:45:44;;;;;;;2.78;1.13;;;;;;;23.39;30.15;98448.41;5059754;28;20044;-85
2022/05/31 14:48:31;;;;;;;1.67;1.00;;;;;;;23.41;29.71;98429.53;5091430;28;20059;-85
2022/05/31 14:51:02;;;;;;;2.17;1.00;;;;;;;22.92;29.56;98422.84;5089475;28;20097;-84
2022/05/31 14:53:37;;;;;;;3.40;0.88;;;;;;;23.13;28.94;98442.19;5092469;28;20926;-84
2022/05/31 14:56:05;;;;;;;3.13;1.00;;;;;;;23.26;29.50;98424.06;5085936;28;20506;-85
2022/05/31 14:58:44;;;;;;;3.38;1.10;;;;;;;23.39;29.37;98426.22;5078143;28;20074;-83
2022/05/31 15:01:17;;;;;;;2.45;1.00;;;;;;;23.63;31.23;98412.44;5092469;28;20112;-85
2022/05/31 15:03:48;;;;;;;3.70;0.80;;;;;;;23.74;28.45;98418.78;5092615;28;20059;-84
2022/05/31 15:06:28;;;;;;;2.35;1.00;;;;;;;23.50;27.33;98415.88;5092217;28;20051;-85
2022/05/31 15:09:10;;;;;;;1.02;0.70;;;;;;;23.58;28.78;98415.28;5085056;28;20076;-85
2022/05/31 15:19:51;;;;;;;1.83;0.98;;;;;;;23.58;28.78;98411.69;5092058;28;20137;-85
2022/05/31 15:22:23;;;;;;;6.43;0.90;;;;;;;23.35;28.71;98408.50;5090925;28;20058;-85
2022/05/31 15:24:52;;;;;;;1.92;1.25;;;;;;;23.53;29.03;98411.69;5087522;28;20467;-85
2022/05/31 15:27:23;;;;;;;1.33;0.70;;;;;;;23.38;31.91;98396.00;5060891;28;20068;-85
2022/05/31 15:29:50;;;;;;;2.80;0.90;;;;;;;23.30;28.79;98400.19;5074992;28;20052;-85
2022/05/31 15:32:17;;;;;;;1.20;0.90;;;;;;;23.21;29.04;98416.63;5090245;28;20044;-85
2022/05/31 15:34:44;;;;;;;4.93;1.30;;;;;;;23.12;29.55;98397.00;5114336;28;20100;-86
2022/05/31 15:37:12;;;;;;;1.85;0.80;;;;;;;23.12;30.25;98398.94;5093782;28;20614;-86
2022/05/31 15:39:41;;;;;;;2.45;0.80;;;;;;;22.86;30.26;98410.13;5087653;28;20048;-85
2022/05/31 15:42:11;;;;;;;1.37;1.00;;;;;;;22.69;30.31;98401.31;5074576;28;20056;-85
2022/05/31 15:44:37;;;;;;;;;;;;;;;22.85;31.02;98411.22;5072747;28;20048;-85
2022/05/31 15:47:05;;;;;;;2.05;0.90;;;;;;;22.82;32.03;98414.56;5067909;28;20004;-86
2022/05/31 15:49:32;;;;;;;2.22;1.00;;;;;;;22.61;30.81;98411.03;5090553;28;20048;-86
2022/05/31 15:52:02;;;;;;;3.25;1.50;;;;;;;22.45;32.17;98400.03;5095648;28;20055;-86
2022/05/31 15:54:35;;;;;;;2.10;1.15;;;;;;;22.29;32.34;98395.59;5095470;28;20509;-86
2022/05/31 15:57:03;;;;;;;1.50;1.00;;;;;;;22.07;34.68;98390.38;5077819;28;20059;-86
2022/05/31 15:59:33;;;;;;;4.28;0.88;;;;;;;22.18;33.78;98414.19;5082469;28;20435;-86
2022/05/31 16:02:03;;;;;;;2.22;1.05;;;;;;;22.00;34.84;98406.47;5093310;28;20458;-87
